createdAt,value
2022-08-01T00:00:09.499Z,2.95
2022-08-01T00:02:39.113Z,2.00
2022-08-01T00:07:37.559Z,2.08
2022-08-01T00:10:05.740Z,2.35
2022-08-01T00:12:32.896Z,1.85
2022-08-01T00:14:59.989Z,2.00
2022-08-01T00:17:26.906Z,1.40
2022-08-01T00:19:53.803Z,2.00
2022-08-01T00:22:20.806Z,1.80
2022-08-01T00:24:47.727Z,1.70
2022-08-01T00:27:14.597Z,1.58
2022-08-01T00:30:01.156Z,1.83
2022-08-01T00:32:28.551Z,1.55
2022-08-01T00:34:56.568Z,1.60
2022-08-01T00:37:23.540Z,1.40
2022-08-01T00:39:50.425Z,1.90
2022-08-01T00:42:17.293Z,1.48
2022-08-01T00:44:44.206Z,1.50
2022-08-01T00:47:11.046Z,1.85
2022-08-01T00:49:38.076Z,1.73
2022-08-01T00:52:06.524Z,2.05
2022-08-01T00:54:33.934Z,1.43
2022-08-01T00:57:01.351Z,1.63
2022-08-01T00:59:28.782Z,1.58
2022-08-01T01:01:56.217Z,1.23
2022-08-01T01:04:24.074Z,1.48
2022-08-01T01:07:08.301Z,1.40
2022-08-01T01:09:51.183Z,1.63
2022-08-01T01:12:38.221Z,1.98
2022-08-01T01:15:10.801Z,1.70
2022-08-01T01:17:53.342Z,1.10
2022-08-01T01:20:23.276Z,1.83
2022-08-01T01:23:17.091Z,1.38
2022-08-01T01:25:50.114Z,1.45
2022-08-01T01:29:00.157Z,1.52
2022-08-01T01:31:27.806Z,2.50
2022-08-01T01:33:55.475Z,1.52
2022-08-01T01:36:23.465Z,1.58
2022-08-01T01:38:52.645Z,1.63
2022-08-01T01:41:19.675Z,1.48
2022-08-01T01:43:47.526Z,1.70
2022-08-01T01:46:18.388Z,1.48
2022-08-01T01:51:15.408Z,1.20
2022-08-01T01:53:42.961Z,1.55
2022-08-01T01:56:10.538Z,1.73
2022-08-01T01:58:39.924Z,1.33
2022-08-01T02:01:14.517Z,1.48
2022-08-01T02:03:44.115Z,1.20
2022-08-01T02:06:13.240Z,1.20
2022-08-01T02:08:41.764Z,1.50
2022-08-01T02:11:20.750Z,1.70
2022-08-01T02:14:00.619Z,2.13
2022-08-01T02:16:36.195Z,1.65
2022-08-01T02:19:04.593Z,2.33
2022-08-01T02:21:36.498Z,1.75
2022-08-01T02:24:15.388Z,2.00
2022-08-01T02:26:47.948Z,2.67
2022-08-01T02:29:21.181Z,1.60
2022-08-01T02:31:49.054Z,1.58
2022-08-01T02:34:19.001Z,2.25
2022-08-01T02:36:47.408Z,1.92
2022-08-01T02:39:20.034Z,1.25
2022-08-01T02:41:50.017Z,3.58
2022-08-01T02:44:26.104Z,1.65
2022-08-01T02:46:57.813Z,2.45
2022-08-01T02:49:27.340Z,1.95
2022-08-01T02:54:22.585Z,1.40
2022-08-01T02:56:50.074Z,1.73
2022-08-01T03:01:50.482Z,2.25
2022-08-01T03:04:18.902Z,1.67
2022-08-01T03:06:46.102Z,1.75
2022-08-01T03:09:13.358Z,1.67
2022-08-01T03:14:12.992Z,2.13
2022-08-01T03:16:41.480Z,1.80
2022-08-01T03:19:11.176Z,2.30
2022-08-01T03:21:39.541Z,1.50
2022-08-01T03:24:07.972Z,1.48
2022-08-01T03:26:36.270Z,2.30
2022-08-01T03:29:15.723Z,1.77
2022-08-01T03:34:11.674Z,2.03
2022-08-01T03:36:45.662Z,2.15
2022-08-01T03:39:14.175Z,1.67
2022-08-01T03:41:43.628Z,1.90
2022-08-01T03:44:14.800Z,2.60
2022-08-01T03:46:59.971Z,2.17
2022-08-01T03:49:34.138Z,2.15
2022-08-01T03:52:04.202Z,2.83
2022-08-01T03:54:35.290Z,2.30
2022-08-01T03:57:02.828Z,2.78
2022-08-01T03:59:30.713Z,3.60
2022-08-01T04:01:57.862Z,2.80
2022-08-01T04:04:24.907Z,3.25
2022-08-01T04:06:55.050Z,1.92
2022-08-01T04:09:23.018Z,2.33
2022-08-01T04:11:50.203Z,4.05
2022-08-01T04:14:17.125Z,2.92
2022-08-01T04:16:44.121Z,4.05
2022-08-01T04:19:11.120Z,2.53
2022-08-01T04:21:38.195Z,2.25
2022-08-01T04:24:16.222Z,2.30
2022-08-01T04:26:45.022Z,2.72
2022-08-01T04:31:43.432Z,4.38
2022-08-01T04:34:11.106Z,2.88
2022-08-01T04:39:07.219Z,3.47
2022-08-01T04:41:34.884Z,3.60
2022-08-01T04:44:03.694Z,4.50
2022-08-01T04:46:31.077Z,3.78
2022-08-01T04:48:58.231Z,3.40
2022-08-01T04:51:25.475Z,4.10
2022-08-01T04:53:52.336Z,4.55
2022-08-01T04:56:21.735Z,3.67
2022-08-01T05:01:15.829Z,3.22
2022-08-01T05:03:42.968Z,3.75
2022-08-01T05:06:10.102Z,3.75
2022-08-01T05:08:37.278Z,3.80
2022-08-01T05:11:04.711Z,4.07
2022-08-01T05:13:31.668Z,3.60
2022-08-01T05:15:58.556Z,3.28
2022-08-01T05:18:28.519Z,3.03
2022-08-01T05:20:56.227Z,4.72
2022-08-01T05:23:42.609Z,2.97
2022-08-01T05:26:11.367Z,4.38
2022-08-01T05:28:42.011Z,3.50
2022-08-01T05:31:08.943Z,3.25
2022-08-01T05:33:36.076Z,3.03
2022-08-01T05:36:03.047Z,3.13
2022-08-01T05:38:29.922Z,3.13
2022-08-01T05:40:56.904Z,4.03
2022-08-01T05:43:28.512Z,2.90
2022-08-01T05:45:56.052Z,3.13
2022-08-01T05:48:22.898Z,3.05
2022-08-01T05:50:50.787Z,2.50
2022-08-01T05:53:18.540Z,3.00
2022-08-01T05:55:45.431Z,4.20
2022-08-01T05:58:12.760Z,3.17
2022-08-01T06:00:40.394Z,4.28
2022-08-01T06:03:07.378Z,3.45
2022-08-01T06:05:34.254Z,4.00
2022-08-01T06:08:01.127Z,2.60
2022-08-01T06:10:28.077Z,4.57
2022-08-01T06:12:55.090Z,61.58
2022-08-01T06:15:22.545Z,38.88
2022-08-01T06:17:49.592Z,33.75
2022-08-01T06:20:16.466Z,26.30
2022-08-01T06:22:43.338Z,20.90
2022-08-01T06:25:10.388Z,18.05
2022-08-01T06:27:37.259Z,15.75
2022-08-01T06:30:05.347Z,15.02
2022-08-01T06:32:32.299Z,14.10
2022-08-01T06:34:59.289Z,12.57
2022-08-01T06:37:32.879Z,13.57
2022-08-01T06:40:05.054Z,11.55
2022-08-01T06:42:36.689Z,20.10
2022-08-01T06:45:08.361Z,41.88
2022-08-01T06:47:35.414Z,34.78
2022-08-01T06:50:02.510Z,23.05
2022-08-01T06:52:29.379Z,18.98
2022-08-01T06:54:56.257Z,16.17
2022-08-01T06:57:23.167Z,16.20
2022-08-01T06:59:54.240Z,13.98
2022-08-01T07:02:21.501Z,12.60
2022-08-01T07:04:48.468Z,12.68
2022-08-01T07:07:18.142Z,12.40
2022-08-01T07:09:45.111Z,10.38
2022-08-01T07:12:12.450Z,9.52
2022-08-01T07:14:39.383Z,9.05
2022-08-01T07:17:06.401Z,230.25
2022-08-01T07:19:34.387Z,142.10
2022-08-01T07:22:01.711Z,75.53
2022-08-01T07:24:30.910Z,48.70
2022-08-01T07:26:58.665Z,40.33
2022-08-01T07:29:26.175Z,37.38
2022-08-01T07:31:54.363Z,36.03
2022-08-01T07:34:22.334Z,33.38
2022-08-01T07:36:50.577Z,31.20
2022-08-01T07:39:17.649Z,30.05
2022-08-01T07:42:04.613Z,26.65
2022-08-01T07:44:31.600Z,24.33
2022-08-01T07:46:58.463Z,23.05
2022-08-01T07:49:25.397Z,21.52
2022-08-01T07:52:03.934Z,21.15
2022-08-01T07:54:39.332Z,19.90
2022-08-01T07:57:06.538Z,18.05
2022-08-01T07:59:33.732Z,17.60
2022-08-01T08:02:00.904Z,17.05
2022-08-01T08:04:28.663Z,15.60
2022-08-01T08:06:55.679Z,14.15
2022-08-01T08:09:22.614Z,12.65
2022-08-01T08:11:49.574Z,13.15
2022-08-01T08:14:17.952Z,12.18
2022-08-01T08:16:45.045Z,10.48
2022-08-01T08:19:12.786Z,9.98
2022-08-01T08:21:39.929Z,10.10
2022-08-01T08:24:20.524Z,8.18
2022-08-01T08:26:56.779Z,7.90
2022-08-01T08:29:24.290Z,10.15
2022-08-01T08:31:53.018Z,9.20
2022-08-01T08:34:20.646Z,8.32
2022-08-01T08:36:49.702Z,7.05
2022-08-01T08:39:19.762Z,6.65
2022-08-01T08:41:49.056Z,6.32
2022-08-01T08:44:18.461Z,5.80
2022-08-01T08:46:48.022Z,6.10
2022-08-01T08:51:50.869Z,4.82
2022-08-01T08:54:19.434Z,5.07
2022-08-01T08:56:46.776Z,4.63
2022-08-01T08:59:14.956Z,5.75
2022-08-01T09:01:43.185Z,4.00
2022-08-01T09:04:10.742Z,3.10
2022-08-01T09:06:38.201Z,4.70
2022-08-01T09:09:06.350Z,3.45
2022-08-01T09:11:33.379Z,2.90
2022-08-01T09:14:12.239Z,3.10
2022-08-01T09:16:49.240Z,2.70
2022-08-01T09:19:39.543Z,5.32
2022-08-01T09:22:13.140Z,2.38
2022-08-01T09:24:41.618Z,3.08
2022-08-01T09:27:25.132Z,1.63
2022-08-01T09:30:00.435Z,2.42
2022-08-01T09:32:35.168Z,2.30
2022-08-01T09:35:30.114Z,1.90
2022-08-01T09:38:15.665Z,1.50
2022-08-01T09:40:53.355Z,2.53
2022-08-01T09:43:21.945Z,1.88
2022-08-01T09:45:50.833Z,1.80
2022-08-01T09:48:22.720Z,2.15
2022-08-01T09:50:55.472Z,2.58
2022-08-01T09:53:29.711Z,1.40
2022-08-01T09:56:10.665Z,1.35
2022-08-01T09:58:58.753Z,1.40
2022-08-01T10:01:26.692Z,1.47
2022-08-01T10:04:15.800Z,2.38
2022-08-01T10:06:48.218Z,4.28
2022-08-01T10:09:28.312Z,3.08
2022-08-01T10:12:06.840Z,2.83
2022-08-01T10:14:35.905Z,2.50
2022-08-01T10:17:05.354Z,4.13
2022-08-01T10:19:33.750Z,1.50
2022-08-01T10:22:03.103Z,2.40
2022-08-01T10:24:34.073Z,1.92
2022-08-01T10:27:08.404Z,1.70
2022-08-01T10:30:06.823Z,1.52
2022-08-01T10:32:43.240Z,1.50
2022-08-01T10:35:45.810Z,2.45
2022-08-01T10:38:06.256Z,2.78
2022-08-01T10:40:38.839Z,1.30
2022-08-01T10:43:06.915Z,1.42
2022-08-01T10:45:34.484Z,2.40
2022-08-01T10:48:26.496Z,1.55
2022-08-01T10:50:59.945Z,1.70
2022-08-01T10:53:31.762Z,1.60
2022-08-01T10:56:13.070Z,1.80
2022-08-01T10:58:44.801Z,1.95
2022-08-01T11:01:20.421Z,2.72
2022-08-01T11:04:02.933Z,1.42
2022-08-01T11:06:42.983Z,2.00
2022-08-01T11:09:12.857Z,2.22
2022-08-01T11:12:08.209Z,2.28
2022-08-01T11:14:59.712Z,3.17
2022-08-01T11:17:37.606Z,4.28
2022-08-01T11:20:16.138Z,2.65
2022-08-01T11:23:17.103Z,2.22
2022-08-01T11:26:06.166Z,4.22
2022-08-01T11:28:36.552Z,4.18
2022-08-01T11:31:11.534Z,2.25
2022-08-01T11:33:45.797Z,2.47
2022-08-01T11:36:14.852Z,4.35
2022-08-01T11:38:48.754Z,5.30
2022-08-01T11:41:37.466Z,2.22
2022-08-01T11:44:07.873Z,2.63
2022-08-01T11:47:09.395Z,3.17
2022-08-01T11:49:49.365Z,2.10
2022-08-01T11:52:20.648Z,2.42
2022-08-01T11:54:58.817Z,2.25
2022-08-01T11:57:34.693Z,2.10
2022-08-01T12:00:18.150Z,2.20
2022-08-01T12:02:48.711Z,1.88
2022-08-01T12:05:19.285Z,1.80
2022-08-01T12:07:47.468Z,5.05
2022-08-01T12:10:19.535Z,1.63
2022-08-01T12:12:54.821Z,1.60
2022-08-01T12:15:27.915Z,1.60
2022-08-01T12:18:01.133Z,1.92
2022-08-01T12:20:31.714Z,1.98
2022-08-01T12:23:01.285Z,1.83
2022-08-01T12:25:28.288Z,2.47
2022-08-01T12:27:56.913Z,1.75
2022-08-01T12:30:25.519Z,2.42
2022-08-01T12:32:54.465Z,1.58
2022-08-01T12:35:24.298Z,2.35
2022-08-01T12:37:53.725Z,1.50
2022-08-01T12:40:28.823Z,2.72
2022-08-01T12:43:07.205Z,1.55
2022-08-01T12:45:54.552Z,2.58
2022-08-01T12:48:25.294Z,3.53
2022-08-01T12:50:53.490Z,2.45
2022-08-01T12:53:21.509Z,2.70
2022-08-01T12:55:58.399Z,1.20
2022-08-01T12:58:31.371Z,1.15
2022-08-01T13:01:06.916Z,2.38
2022-08-01T13:03:34.101Z,1.38
2022-08-01T13:08:34.376Z,1.70
2022-08-01T13:11:15.247Z,1.27
2022-08-01T13:13:50.496Z,1.10
2022-08-01T13:19:06.866Z,2.28
2022-08-01T13:21:54.107Z,1.27
2022-08-01T13:24:30.699Z,1.17
2022-08-01T13:27:04.854Z,1.30
2022-08-01T13:29:35.185Z,1.35
2022-08-01T13:32:35.220Z,2.38
2022-08-01T13:35:23.873Z,2.33
2022-08-01T13:37:50.944Z,2.38
2022-08-01T13:40:26.537Z,1.45
2022-08-01T13:42:57.709Z,1.10
2022-08-01T13:45:26.504Z,3.55
2022-08-01T13:48:03.869Z,1.98
2022-08-01T13:50:40.177Z,4.28
2022-08-01T13:53:07.110Z,3.55
2022-08-01T13:55:35.156Z,2.55
2022-08-01T13:58:03.857Z,1.40
2022-08-01T14:00:31.092Z,1.03
2022-08-01T14:02:57.980Z,1.10
2022-08-01T14:05:24.916Z,1.35
2022-08-01T14:07:56.739Z,1.73
2022-08-01T14:10:24.844Z,1.92
2022-08-01T14:12:51.772Z,1.20
2022-08-01T14:15:38.115Z,1.50
2022-08-01T14:18:07.340Z,1.48
2022-08-01T14:20:35.740Z,3.42
2022-08-01T14:23:02.931Z,2.60
2022-08-01T14:26:00.448Z,2.08
2022-08-01T14:28:16.919Z,0.77
2022-08-01T14:30:44.116Z,1.30
2022-08-01T14:33:11.964Z,2.05
2022-08-01T14:35:46.557Z,2.88
2022-08-01T14:38:31.345Z,1.65
2022-08-01T14:41:01.140Z,1.45
2022-08-01T14:43:32.867Z,1.65
2022-08-01T14:46:01.602Z,3.03
2022-08-01T14:48:28.576Z,1.98
2022-08-01T14:50:57.328Z,0.80
2022-08-01T14:53:24.225Z,1.27
2022-08-01T14:55:51.214Z,1.20
2022-08-01T14:58:18.147Z,0.77
2022-08-01T15:00:45.304Z,1.13
2022-08-01T15:03:12.261Z,2.22
2022-08-01T15:05:39.212Z,2.65
2022-08-01T15:08:07.789Z,3.13
2022-08-01T15:10:34.787Z,1.17
2022-08-01T15:13:02.597Z,1.23
2022-08-01T15:15:29.804Z,2.22
2022-08-01T15:17:56.701Z,1.30
2022-08-01T15:20:23.736Z,2.88
2022-08-01T15:22:54.597Z,2.17
2022-08-01T15:25:21.638Z,4.30
2022-08-01T15:27:48.581Z,3.30
2022-08-01T15:30:15.541Z,3.17
2022-08-01T15:32:42.502Z,2.42
2022-08-01T15:37:42.798Z,1.60
2022-08-01T15:40:12.409Z,2.55
2022-08-01T15:42:39.568Z,1.20
2022-08-01T15:45:10.597Z,2.97
2022-08-01T15:47:40.337Z,2.08
2022-08-01T15:50:08.027Z,1.35
2022-08-01T15:52:35.304Z,1.42
2022-08-01T15:55:02.707Z,1.63
2022-08-01T15:57:29.707Z,2.13
2022-08-01T15:59:56.710Z,1.55
2022-08-01T16:02:23.729Z,1.17
2022-08-01T16:04:50.987Z,2.08
2022-08-01T16:07:17.831Z,1.60
2022-08-01T16:09:44.704Z,2.35
2022-08-01T16:12:11.594Z,1.77
2022-08-01T16:14:38.455Z,2.70
2022-08-01T16:17:05.374Z,1.45
2022-08-01T16:19:32.290Z,1.92
2022-08-01T16:21:59.274Z,1.70
2022-08-01T16:24:29.244Z,1.98
2022-08-01T16:26:56.179Z,2.33
2022-08-01T16:29:23.155Z,2.22
2022-08-01T16:32:07.364Z,2.22
2022-08-01T16:34:37.018Z,1.90
2022-08-01T16:37:04.134Z,1.55
2022-08-01T16:39:35.255Z,1.45
2022-08-01T16:42:02.267Z,1.98
2022-08-01T16:44:34.179Z,2.63
2022-08-01T16:47:03.066Z,1.30
2022-08-01T16:49:31.930Z,3.63
2022-08-01T16:51:59.021Z,1.40
2022-08-01T16:54:26.384Z,1.40
2022-08-01T16:56:54.410Z,1.50
2022-08-01T17:02:00.027Z,1.50
2022-08-01T17:04:31.456Z,1.45
2022-08-01T17:06:58.438Z,1.70
2022-08-01T17:09:26.138Z,1.40
2022-08-01T17:11:53.148Z,2.35
2022-08-01T17:14:20.192Z,1.90
2022-08-01T17:16:47.104Z,2.35
2022-08-01T17:19:14.588Z,2.33
2022-08-01T17:21:42.200Z,2.58
2022-08-01T17:24:10.101Z,1.48
2022-08-01T17:29:05.361Z,1.65
2022-08-01T17:31:32.295Z,2.10
2022-08-01T17:33:59.346Z,1.95
2022-08-01T17:36:26.285Z,1.08
2022-08-01T17:38:53.148Z,2.85
2022-08-01T17:41:20.033Z,1.63
2022-08-01T17:43:47.060Z,1.27
2022-08-01T17:46:13.941Z,1.55
2022-08-01T17:48:40.868Z,1.08
2022-08-01T17:51:07.762Z,0.93
2022-08-01T17:53:34.788Z,1.35
2022-08-01T17:56:05.585Z,3.20
2022-08-01T17:58:33.788Z,1.25
2022-08-01T18:01:19.137Z,2.35
2022-08-01T18:03:46.636Z,2.38
2022-08-01T18:06:15.849Z,1.05
2022-08-01T18:08:43.387Z,3.33
2022-08-01T18:11:11.321Z,2.95
2022-08-01T18:13:40.336Z,3.47
2022-08-01T18:16:09.136Z,3.30
2022-08-01T18:18:36.458Z,4.03
2022-08-01T18:21:03.519Z,6.72
2022-08-01T18:23:30.628Z,9.95
2022-08-01T18:26:01.537Z,10.00
2022-08-01T18:28:35.429Z,9.15
2022-08-01T18:31:06.258Z,6.47
2022-08-01T18:33:36.654Z,5.97
2022-08-01T18:38:33.118Z,4.32
2022-08-01T18:41:01.194Z,2.42
2022-08-01T18:43:28.400Z,6.45
2022-08-01T18:45:57.264Z,2.78
2022-08-01T18:48:24.540Z,2.60
2022-08-01T18:50:53.927Z,1.98
2022-08-01T18:53:22.544Z,3.65
2022-08-01T18:55:49.912Z,2.35
2022-08-01T18:58:16.878Z,1.92
2022-08-01T19:00:43.821Z,3.88
2022-08-01T19:03:10.706Z,2.15
2022-08-01T19:05:37.706Z,5.90
2022-08-01T19:08:07.734Z,2.03
2022-08-01T19:10:39.920Z,2.50
2022-08-01T19:13:08.230Z,4.72
2022-08-01T19:15:35.710Z,5.72
2022-08-01T19:18:03.336Z,5.22
2022-08-01T19:20:30.635Z,4.85
2022-08-01T19:22:58.375Z,3.47
2022-08-01T19:25:25.352Z,3.78
2022-08-01T19:27:52.955Z,3.58
2022-08-01T19:30:20.063Z,2.95
2022-08-01T19:32:49.097Z,3.42
2022-08-01T19:35:17.388Z,4.18
2022-08-01T19:37:47.165Z,4.05
2022-08-01T19:40:26.865Z,5.22
2022-08-01T19:42:56.387Z,4.65
2022-08-01T19:45:24.698Z,6.97
2022-08-01T19:47:56.638Z,4.30
2022-08-01T19:50:25.217Z,4.97
2022-08-01T19:52:52.315Z,4.53
2022-08-01T19:55:19.279Z,3.60
2022-08-01T19:57:59.347Z,5.82
2022-08-01T20:00:38.961Z,6.55
2022-08-01T20:03:06.032Z,3.90
2022-08-01T20:05:33.383Z,4.05
2022-08-01T20:08:00.307Z,4.95
2022-08-01T20:10:29.960Z,2.80
2022-08-01T20:12:57.743Z,6.15
2022-08-01T20:17:52.455Z,3.88
2022-08-01T20:20:19.321Z,6.30
2022-08-01T20:22:47.340Z,2.80
2022-08-01T20:25:14.358Z,7.03
2022-08-01T20:27:43.311Z,4.60
2022-08-01T20:30:10.730Z,5.97
2022-08-01T20:32:40.184Z,20.15
2022-08-01T20:38:03.729Z,23.95
2022-08-01T20:40:27.048Z,20.35
2022-08-01T20:42:54.374Z,18.02
2022-08-01T20:45:22.479Z,13.90
2022-08-01T20:47:50.411Z,19.23
2022-08-01T20:50:54.345Z,12.10
2022-08-01T20:53:23.818Z,11.20
2022-08-01T20:55:59.397Z,10.57
2022-08-01T21:01:39.938Z,8.65
2022-08-01T21:07:28.283Z,7.70
2022-08-01T21:10:07.246Z,8.77
2022-08-01T21:12:50.210Z,6.30
2022-08-01T21:16:22.059Z,6.28
2022-08-01T21:19:19.172Z,5.82
2022-08-01T21:21:50.819Z,4.90
2022-08-01T21:24:19.061Z,6.03
2022-08-01T21:26:47.088Z,4.97
2022-08-01T21:29:15.267Z,3.95
2022-08-01T21:31:42.457Z,3.85
2022-08-01T21:34:10.643Z,4.38
2022-08-01T21:36:37.714Z,7.05
2022-08-01T21:39:07.096Z,7.88
2022-08-01T21:44:28.678Z,6.07
2022-08-01T21:46:59.434Z,5.25
2022-08-01T21:49:26.946Z,4.93
2022-08-01T21:54:48.626Z,4.83
2022-08-01T22:00:24.904Z,4.05
2022-08-01T22:05:51.956Z,3.38
2022-08-01T22:11:06.607Z,3.35
2022-08-01T22:13:36.758Z,5.18
2022-08-01T22:16:05.706Z,2.53
2022-08-01T22:18:33.690Z,4.63
2022-08-01T22:21:02.551Z,3.38
2022-08-01T22:23:29.974Z,3.13
2022-08-01T22:25:56.838Z,2.10
2022-08-01T22:28:24.329Z,1.90
2022-08-01T22:30:52.443Z,3.63
2022-08-01T22:33:19.612Z,4.32
2022-08-01T22:35:48.837Z,3.55
2022-08-01T22:38:19.200Z,2.55
2022-08-01T22:40:54.741Z,2.25
2022-08-01T22:43:30.701Z,2.33
2022-08-01T22:48:57.364Z,3.67
2022-08-01T22:51:55.213Z,3.55
2022-08-01T22:54:30.260Z,3.20
2022-08-01T22:56:57.771Z,4.80
2022-08-01T22:59:42.527Z,4.93
2022-08-01T23:02:10.768Z,3.85
2022-08-01T23:04:42.214Z,3.70
2022-08-01T23:07:09.612Z,3.38
2022-08-01T23:09:53.822Z,2.58
2022-08-01T23:12:23.815Z,2.90
2022-08-01T23:14:55.713Z,2.15
2022-08-01T23:17:27.275Z,3.63
2022-08-01T23:20:01.174Z,4.57
2022-08-01T23:22:31.265Z,2.47
2022-08-01T23:25:04.267Z,2.22
2022-08-01T23:27:51.434Z,1.90
2022-08-01T23:30:24.920Z,3.22
2022-08-01T23:32:51.834Z,2.90
2022-08-01T23:35:18.808Z,1.80
2022-08-01T23:37:45.935Z,2.72
2022-08-01T23:40:13.095Z,1.85
2022-08-01T23:42:40.087Z,2.08
2022-08-01T23:45:07.604Z,3.00
2022-08-01T23:47:34.556Z,2.78
2022-08-01T23:50:01.537Z,2.55
2022-08-01T23:52:32.313Z,1.90
2022-08-01T23:55:03.328Z,1.63
2022-08-01T23:57:41.105Z,1.60
